createdAt,value
2018-08-25T00:02:20.318Z,14.40
2018-08-25T00:04:48.687Z,14.40
2018-08-25T00:07:17.006Z,14.40
2018-08-25T00:09:45.358Z,14.40
2018-08-25T00:12:14.122Z,14.30
2018-08-25T01:15:43.792Z,13.40
2018-08-25T01:18:12.137Z,13.40
2018-08-25T01:23:33.709Z,13.30
2018-08-25T01:26:02.001Z,13.30
2018-08-25T01:28:30.317Z,13.30
2018-08-25T01:30:59.857Z,13.20
2018-08-25T01:33:28.199Z,13.20
2018-08-25T01:35:56.541Z,13.10
2018-08-25T01:38:24.866Z,13.10
2018-08-25T01:40:53.262Z,13.00
2018-08-25T01:43:21.629Z,13.00
2018-08-25T01:45:49.949Z,12.90
2018-08-25T01:48:18.282Z,12.80
2018-08-25T01:50:46.660Z,12.80
2018-08-25T01:53:15.013Z,12.80
2018-08-25T01:55:43.374Z,12.70
2018-08-25T01:58:11.680Z,12.70
2018-08-25T02:00:40.029Z,12.70
2018-08-25T02:03:08.311Z,12.60
2018-08-25T02:05:36.605Z,12.60
2018-08-25T02:08:05.689Z,12.60
2018-08-25T02:10:33.994Z,12.60
2018-08-25T02:13:02.290Z,12.60
2018-08-25T02:21:17.101Z,12.50
2018-08-25T05:19:19.011Z,12.30
2018-08-25T05:21:59.598Z,12.40
2018-08-25T05:27:20.976Z,12.40
2018-08-25T05:29:49.298Z,12.30
2018-08-25T05:32:17.621Z,12.30
2018-08-25T05:34:45.946Z,12.30
2018-08-25T05:37:14.253Z,12.30
2018-08-25T05:39:42.579Z,12.30
2018-08-25T05:42:10.853Z,12.40
2018-08-25T05:44:39.164Z,12.40
2018-08-25T05:47:07.528Z,12.50
2018-08-25T05:49:35.954Z,12.50
2018-08-25T05:52:04.433Z,12.50
2018-08-25T05:54:32.823Z,12.60
2018-08-25T05:57:01.104Z,12.60
2018-08-25T05:59:29.673Z,12.60
2018-08-25T06:01:57.957Z,12.60
2018-08-25T06:04:26.203Z,12.60
2018-08-25T06:06:54.496Z,12.70
2018-08-25T06:09:22.765Z,12.80
2018-08-25T06:11:51.031Z,12.90
2018-08-25T06:14:19.297Z,12.90
2018-08-25T06:22:37.085Z,12.80
2018-08-25T06:27:58.208Z,12.80
2018-08-25T06:30:26.514Z,12.80
2018-08-25T06:32:54.818Z,12.80
2018-08-25T06:35:23.141Z,12.90
2018-08-25T06:37:51.473Z,12.80
2018-08-25T06:40:19.761Z,12.80
2018-08-25T06:42:48.097Z,12.90
2018-08-25T06:45:16.407Z,12.90
2018-08-25T06:47:44.733Z,13.00
2018-08-25T06:50:14.573Z,13.20
2018-08-25T06:52:42.949Z,13.20
2018-08-25T06:55:11.257Z,13.40
2018-08-25T06:57:39.587Z,13.40
2018-08-25T07:00:08.233Z,13.50
2018-08-25T07:02:36.658Z,13.60
2018-08-25T07:05:05.073Z,13.70
2018-08-25T07:07:33.404Z,13.80
2018-08-25T07:10:01.705Z,14.00
2018-08-25T07:12:30.020Z,14.10
2018-08-25T07:34:26.391Z,15.30
2018-08-25T07:36:58.705Z,15.40
2018-08-25T07:39:34.165Z,15.50
2018-08-25T07:44:47.577Z,15.90
2018-08-25T07:47:28.231Z,16.10
2018-08-25T07:50:06.907Z,16.30
2018-08-25T07:52:42.450Z,16.40
2018-08-25T07:55:17.468Z,16.60
2018-08-25T08:00:29.327Z,16.80
2018-08-25T08:03:05.349Z,17.00
2018-08-25T08:05:43.082Z,17.20
2018-08-25T08:10:56.326Z,16.90
2018-08-25T08:29:28.154Z,17.90
2018-08-25T08:34:40.721Z,18.00
2018-08-25T08:39:52.341Z,18.20
2018-08-25T08:42:28.426Z,18.30
2018-08-25T08:45:03.970Z,18.30
2018-08-25T08:47:40.209Z,18.40
2018-08-25T08:52:51.840Z,18.10
2018-08-25T08:55:27.849Z,17.90
2018-08-25T09:00:40.810Z,18.10
2018-08-25T09:05:52.955Z,18.00
2018-08-25T09:22:37.359Z,17.80
2018-08-25T09:25:05.700Z,17.70
2018-08-25T09:27:34.163Z,17.60
2018-08-25T09:30:02.441Z,17.50
2018-08-25T09:32:30.771Z,17.40
2018-08-25T09:34:59.198Z,17.30
2018-08-25T09:37:27.537Z,17.30
2018-08-25T09:39:55.900Z,17.10
2018-08-25T09:42:24.248Z,16.90
2018-08-25T09:44:52.539Z,16.70
2018-08-25T09:47:20.848Z,16.60
2018-08-25T09:49:49.157Z,16.50
2018-08-25T09:52:17.657Z,16.60
2018-08-25T09:54:45.953Z,16.70
2018-08-25T09:57:14.220Z,16.90
2018-08-25T09:59:42.476Z,17.00
2018-08-25T10:02:10.745Z,17.30
2018-08-25T10:04:39.008Z,17.40
2018-08-25T10:07:07.301Z,17.60
2018-08-25T10:09:35.577Z,17.60
2018-08-25T10:12:03.877Z,17.70
2018-08-25T10:17:25.310Z,17.80
2018-08-25T10:28:45.911Z,18.20
2018-08-25T10:31:18.863Z,18.10
2018-08-25T10:33:48.081Z,17.90
2018-08-25T10:36:16.512Z,17.80
2018-08-25T10:38:44.901Z,17.70
2018-08-25T10:41:13.223Z,17.60
2018-08-25T10:43:41.529Z,17.60
2018-08-25T10:46:09.821Z,17.60
2018-08-25T10:48:38.097Z,17.60
2018-08-25T10:51:06.428Z,17.60
2018-08-25T10:53:34.744Z,17.70
2018-08-25T10:56:03.047Z,17.70
2018-08-25T10:58:31.374Z,17.90
2018-08-25T11:00:59.854Z,18.30
2018-08-25T11:03:28.015Z,18.90
2018-08-25T11:05:56.309Z,19.70
2018-08-25T11:08:24.609Z,19.90
2018-08-25T11:10:52.909Z,20.10
2018-08-25T11:16:14.109Z,19.90
2018-08-25T11:21:35.617Z,19.50
2018-08-25T12:13:14.128Z,13.30
2018-08-25T12:23:39.667Z,12.90
2018-08-25T12:26:18.438Z,12.90
2018-08-25T12:28:53.589Z,12.90
2018-08-25T12:34:09.139Z,13.10
2018-08-25T12:44:34.255Z,14.20
2018-08-25T12:49:49.954Z,14.40
2018-08-25T12:55:04.656Z,15.10
2018-08-25T13:00:19.229Z,15.70
2018-08-25T13:02:55.638Z,15.90
2018-08-25T13:13:22.745Z,17.80
2018-08-25T13:15:58.594Z,18.30
2018-08-25T13:18:36.162Z,18.60
2018-08-25T13:23:48.552Z,19.10
2018-08-25T13:26:24.606Z,18.60
2018-08-25T13:31:40.490Z,17.60
2018-08-25T13:34:15.997Z,17.30
2018-08-25T13:36:47.653Z,17.10
2018-08-25T13:39:17.257Z,16.90
2018-08-25T13:41:46.165Z,16.90
2018-08-25T13:44:14.669Z,17.10
2018-08-25T13:46:45.408Z,17.30
2018-08-25T13:49:14.572Z,17.40
2018-08-25T13:51:42.913Z,17.30
2018-08-25T13:54:11.758Z,17.20
2018-08-25T13:56:40.138Z,17.30
2018-08-25T13:59:08.497Z,17.50
2018-08-25T14:01:36.827Z,17.60
2018-08-25T14:04:05.126Z,17.80
2018-08-25T14:06:33.465Z,17.70
2018-08-25T14:09:01.803Z,17.90
2018-08-25T14:11:30.142Z,18.50
2018-08-25T15:17:45.270Z,16.80
2018-08-25T15:20:14.117Z,16.60
2018-08-25T15:22:42.688Z,17.00
2018-08-25T15:25:17.441Z,17.40
2018-08-25T16:19:37.994Z,16.50
2018-08-25T16:22:06.710Z,16.20
2018-08-25T16:24:35.084Z,16.10
2018-08-25T16:27:03.596Z,16.00
2018-08-25T16:29:32.289Z,15.70
2018-08-25T16:32:00.711Z,15.70
2018-08-25T16:34:29.134Z,15.70
2018-08-25T16:36:58.479Z,15.70
2018-08-25T16:39:28.128Z,15.70
2018-08-25T16:41:58.301Z,15.50
2018-08-25T16:44:28.558Z,15.10
2018-08-25T16:47:01.499Z,14.90
2018-08-25T16:49:32.647Z,14.80
2018-08-25T16:52:06.082Z,14.70
2018-08-25T16:54:43.696Z,14.50
2018-08-25T16:57:16.233Z,14.50
2018-08-25T16:59:47.187Z,14.40
2018-08-25T17:02:17.007Z,14.50
2018-08-25T17:04:49.747Z,14.50
2018-08-25T17:07:24.260Z,14.80
2018-08-25T17:09:59.021Z,15.30
2018-08-25T17:12:37.381Z,15.10
2018-08-25T17:27:00.478Z,14.10
2018-08-25T17:29:45.050Z,13.90
2018-08-25T17:35:17.537Z,13.80
2018-08-25T17:43:42.076Z,13.90
2018-08-25T17:46:10.385Z,13.80
2018-08-25T17:48:38.769Z,13.80
2018-08-25T17:51:07.135Z,13.80
2018-08-25T17:53:35.391Z,13.80
2018-08-25T17:56:03.692Z,13.90
2018-08-25T17:58:31.981Z,13.90
2018-08-25T18:01:00.311Z,13.80
2018-08-25T18:03:28.595Z,13.70
2018-08-25T18:05:56.920Z,13.70
2018-08-25T18:08:25.217Z,13.60
2018-08-25T18:10:53.542Z,13.50
2018-08-25T18:16:14.409Z,13.50
2018-08-25T18:18:42.795Z,13.50
2018-08-25T20:13:32.686Z,12.80
2018-08-25T20:16:00.960Z,12.80
2018-08-25T20:18:30.144Z,12.80
2018-08-25T20:20:58.514Z,12.70
2018-08-25T20:23:26.856Z,12.70
2018-08-25T20:25:55.142Z,12.70
2018-08-25T20:28:23.468Z,12.60
2018-08-25T20:30:51.859Z,12.60
2018-08-25T20:33:20.226Z,12.60
2018-08-25T20:35:48.646Z,12.60
2018-08-25T20:38:16.960Z,12.60
2018-08-25T20:40:45.245Z,12.50
2018-08-25T20:43:13.541Z,12.50
2018-08-25T20:45:41.946Z,12.40
2018-08-25T20:48:10.114Z,12.40
2018-08-25T20:50:38.385Z,12.40
2018-08-25T20:53:06.653Z,12.30
2018-08-25T20:55:34.957Z,12.30
2018-08-25T20:58:03.254Z,12.30
2018-08-25T21:00:31.530Z,12.30
2018-08-25T21:02:59.814Z,12.30
2018-08-25T21:05:28.065Z,12.30
2018-08-25T21:07:56.368Z,12.20
2018-08-25T21:10:24.649Z,12.20
2018-08-25T21:12:52.906Z,12.30
2018-08-25T21:15:22.476Z,12.20
2018-08-25T21:17:50.818Z,12.20
